Time;durP1;ratioP1;P1;durP2;ratioP2;P2;SDS_P1;SDS_P2;PMS_P1;PMS_P2;Temp;Humidity;BMP_temperature;BMP_pressure;BME280_temperature;BME280_humidity;BME280_pressure;Samples;Min_cycle;Max_cycle;Signal;HPM_P1;HPM_P2
2022/11/14 00:01:54;;;;;;;;;8.33;8.00;;;;;21.57;47.85;101241.13;5024865;28;45437;-69
2022/11/14 00:04:19;;;;;;;;;12.00;9.67;;;;;21.58;48.29;101239.31;5031996;28;45498;-69
2022/11/14 00:06:45;;;;;;;;;7.25;7.25;;;;;21.58;48.39;101240.16;5028475;28;45318;-70
2022/11/14 00:09:10;;;;;;;;;8.33;8.00;;;;;21.59;48.38;101235.69;5031904;28;45323;-69
2022/11/14 00:11:35;;;;;;;;;9.67;8.00;;;;;21.58;48.32;101226.06;5029058;28;45443;-70
2022/11/14 00:14:01;;;;;;;;;9.50;7.00;;;;;21.57;47.84;101217.28;5029328;28;50648;-70
2022/11/14 00:16:26;;;;;;;;;8.50;6.50;;;;;21.54;48.31;101206.22;5026423;28;46964;-70
2022/11/14 00:18:52;;;;;;;;;7.33;7.00;;;;;21.56;48.49;101212.19;5026828;28;45355;-70
2022/11/14 00:21:17;;;;;;;;;6.33;6.00;;;;;21.54;48.11;101211.53;5027066;28;45447;-70
2022/11/14 00:23:43;;;;;;;;;9.00;8.00;;;;;21.57;48.29;101219.16;5027026;28;45212;-70
2022/11/14 00:26:08;;;;;;;;;9.00;8.25;;;;;21.51;48.60;101205.59;5028925;28;45798;-70
2022/11/14 00:28:33;;;;;;;;;7.00;6.00;;;;;21.57;48.50;101200.59;5031799;28;45578;-70
2022/11/14 00:30:59;;;;;;;;;9.33;7.00;;;;;21.51;48.11;101180.94;5029868;28;46154;-70
2022/11/14 00:33:24;;;;;;;;;9.00;9.00;;;;;21.58;48.38;101202.25;5032721;28;45398;-70
2022/11/14 00:35:51;;;;;;;;;9.00;9.00;;;;;21.58;48.07;101210.19;5027908;28;45567;-69
2022/11/14 00:38:16;;;;;;;;;7.00;7.00;;;;;21.57;48.54;101204.06;5033425;28;45497;-70
2022/11/14 00:40:42;;;;;;;;;8.67;8.00;;;;;21.57;48.40;101200.59;5030741;28;45383;-69
2022/11/14 00:43:07;;;;;;;;;7.00;7.00;;;;;21.58;48.60;101199.59;5029922;28;45275;-70
2022/11/14 00:45:32;;;;;;;;;10.33;8.33;;;;;21.58;48.53;101196.94;5030254;28;53369;-69
2022/11/14 00:47:57;;;;;;;;;6.00;6.00;;;;;21.58;48.63;101196.94;5031321;28;45411;-71
2022/11/14 00:50:23;;;;;;;;;8.75;8.75;;;;;21.57;48.33;101196.13;5024617;28;50490;-70
2022/11/14 00:52:48;;;;;;;;;8.33;8.33;;;;;21.51;48.33;101189.69;5029835;28;45480;-70
2022/11/14 00:55:13;;;;;;;;;8.00;7.00;;;;;21.56;48.17;101202.44;5029807;28;45422;-70
2022/11/14 00:57:39;;;;;;;;;7.00;6.67;;;;;21.55;48.51;101206.06;5031029;28;46340;-70
2022/11/14 01:00:05;;;;;;;;;8.00;6.00;;;;;21.56;48.21;101206.88;5030415;28;45332;-74
2022/11/14 01:02:31;;;;;;;;;11.00;9.33;;;;;21.46;47.69;101192.03;5014684;28;45296;-71
2022/11/14 01:04:56;;;;;;;;;11.33;8.33;;;;;21.55;47.65;101197.28;5029223;28;47074;-70
2022/11/14 01:07:21;;;;;;;;;8.00;7.25;;;;;21.55;47.75;101194.63;5023037;28;45385;-70
2022/11/14 01:09:47;;;;;;;;;8.75;8.00;;;;;21.55;47.87;101189.34;5018520;28;45533;-70
2022/11/14 01:12:12;;;;;;;;;13.75;11.00;;;;;21.57;48.04;101190.03;5020346;28;48133;-70
2022/11/14 01:14:39;;;;;;;;;9.25;9.25;;;;;21.58;47.68;101181.06;5017818;28;45415;-70
2022/11/14 01:17:04;;;;;;;;;8.50;8.00;;;;;21.60;47.83;101173.78;5017679;28;45563;-70
2022/11/14 01:19:29;;;;;;;;;11.00;9.33;;;;;21.61;47.87;101178.09;5017866;28;45384;-70
2022/11/14 01:21:55;;;;;;;;;8.00;7.75;;;;;21.60;47.81;101182.53;5030568;28;45359;-70
2022/11/14 01:24:20;;;;;;;;;13.25;11.50;;;;;21.60;47.37;101174.59;5018058;28;46165;-70
2022/11/14 01:26:45;;;;;;;;;11.50;10.00;;;;;21.60;47.21;101179.91;5017446;28;45338;-70
2022/11/14 01:29:10;;;;;;;;;6.75;6.75;;;;;21.61;47.47;101178.09;5021711;28;45472;-72
2022/11/14 01:31:36;;;;;;;;;9.25;7.50;;;;;21.60;47.64;101173.78;5017675;28;45469;-69
2022/11/14 01:34:01;;;;;;;;;11.25;10.25;;;;;21.51;47.02;101151.81;5028603;28;45415;-70
2022/11/14 01:36:26;;;;;;;;;11.50;9.75;;;;;21.60;46.98;101169.31;5036192;28;45419;-70
2022/11/14 01:38:52;;;;;;;;;10.00;10.00;;;;;21.61;47.11;101165.69;5037130;28;45354;-71
2022/11/14 01:41:18;;;;;;;;;9.00;8.00;;;;;21.55;47.42;101153.09;5032491;28;45322;-71
2022/11/14 01:43:44;;;;;;;;;12.25;11.25;;;;;21.58;47.38;101162.53;5037303;28;46172;-70
2022/11/14 01:46:22;;;;;;;;;11.00;10.00;;;;;21.58;47.42;101162.53;5037617;28;45420;-69
2022/11/14 01:48:58;;;;;;;;;8.00;8.00;;;;;21.50;47.08;101143.03;5024213;28;45228;-70
2022/11/14 01:51:34;;;;;;;;;11.00;9.75;;;;;21.57;47.11;101156.41;5037132;28;45355;-70
2022/11/14 01:54:04;;;;;;;;;14.00;10.75;;;;;21.54;46.89;101151.47;5036984;28;46296;-70
2022/11/14 01:56:39;;;;;;;;;11.50;9.75;;;;;21.57;46.89;101153.75;5037320;28;45375;-69
2022/11/14 01:59:11;;;;;;;;;12.75;12.00;;;;;21.55;47.01;101149.63;5036983;28;45393;-71
2022/11/14 02:01:43;;;;;;;;;12.00;10.00;;;;;21.54;47.44;101155.94;5037425;28;45482;-70
2022/11/14 02:04:10;;;;;;;;;13.25;12.50;;;;;21.51;47.63;101143.84;5036886;28;46480;-70
2022/11/14 02:06:36;;;;;;;;;13.25;10.50;;;;;21.49;47.29;101136.06;5036815;28;45493;-70
2022/11/14 02:09:04;;;;;;;;;10.25;7.25;;;;;21.51;47.01;101138.56;5036779;28;45590;-70
2022/11/14 02:11:31;;;;;;;;;14.00;9.50;;;;;21.50;47.59;101143.03;5036835;28;45546;-70
2022/11/14 02:13:58;;;;;;;;;10.50;10.25;;;;;21.50;47.10;101136.91;5036955;28;47377;-69
2022/11/14 02:16:24;;;;;;;;;13.50;12.00;;;;;21.49;47.60;101137.91;5036156;28;45245;-71
2022/11/14 02:18:49;;;;;;;;;10.75;10.25;;;;;21.39;47.56;101130.97;5037079;28;45725;-68
2022/11/14 02:21:15;;;;;;;;;12.25;12.25;;;;;21.49;47.13;101138.72;5036518;28;45420;-69
2022/11/14 02:23:40;;;;;;;;;9.75;9.50;;;;;21.49;47.13;101129.97;5036452;28;45374;-70
2022/11/14 02:26:05;;;;;;;;;12.75;11.50;;;;;21.48;47.13;101138.91;5015512;28;45399;-68
2022/11/14 02:28:31;;;;;;;;;14.50;9.75;;;;;21.46;47.54;101140.88;5028446;28;45344;-69
2022/11/14 02:30:56;;;;;;;;;14.75;10.00;;;;;21.47;47.34;101140.72;5036767;28;45443;-69
2022/11/14 02:33:21;;;;;;;;;12.00;8.50;;;;;21.44;47.23;101121.72;5031326;28;45308;-69
2022/11/14 02:35:47;;;;;;;;;11.00;9.25;;;;;21.49;47.09;101125.47;5027671;28;45339;-70
2022/11/14 02:38:12;;;;;;;;;10.00;9.50;;;;;21.51;46.73;101131.44;5037035;28;45366;-71
2022/11/14 02:40:38;;;;;;;;;10.25;10.25;;;;;21.42;46.77;101108.63;5036512;28;45378;-71
2022/11/14 02:43:03;;;;;;;;;10.25;9.50;;;;;21.51;46.86;101118.22;5035295;28;46088;-71
2022/11/14 02:45:28;;;;;;;;;8.75;8.75;;;;;21.49;47.02;101116.72;5024001;28;45354;-71
2022/11/14 02:47:54;;;;;;;;;13.75;11.00;;;;;21.51;46.72;101123.50;5036583;28;45389;-69
2022/11/14 02:50:19;;;;;;;;;11.00;11.00;;;;;21.50;46.98;101123.66;5018106;28;45307;-69
2022/11/14 02:52:44;;;;;;;;;13.25;8.25;;;;;21.44;46.58;101111.13;5036325;28;45275;-70
2022/11/14 02:55:10;;;;;;;;;10.00;9.33;;;;;21.49;46.66;101127.31;5035928;28;45369;-70
2022/11/14 02:57:36;;;;;;;;;8.75;8.75;;;;;21.39;46.59;101109.78;5036257;28;45514;-69
2022/11/14 03:00:02;;;;;;;;;15.75;9.50;;;;;21.34;46.47;101108.66;5036036;28;45395;-71
2022/11/14 03:02:28;;;;;;;;;11.50;8.50;;;;;21.46;46.46;101131.13;5036157;28;48100;-69
2022/11/14 03:04:53;;;;;;;;;7.33;7.33;;;;;21.44;47.07;101132.31;5035778;28;45528;-71
2022/11/14 03:07:18;;;;;;;;;17.00;10.00;;;;;21.45;46.89;101129.47;5036358;28;45428;-70
2022/11/14 03:09:44;;;;;;;;;9.25;9.25;;;;;21.45;46.54;101136.59;5036200;28;45530;-71
2022/11/14 03:12:09;;;;;;;;;10.75;10.75;;;;;21.44;46.97;101132.31;5017798;28;47094;-70
2022/11/14 03:14:34;;;;;;;;;10.50;8.75;;;;;;;;5036027;28;45556;-69
2022/11/14 03:17:00;;;;;;;;;11.00;8.00;;;;;21.34;46.76;101103.38;5036430;28;45426;-68
2022/11/14 03:19:25;;;;;;;;;12.25;10.50;;;;;21.45;46.88;101131.28;5035744;28;45422;-70
2022/11/14 03:21:50;;;;;;;;;10.00;7.50;;;;;21.44;47.06;101127.84;5036186;28;46275;-70
2022/11/14 03:24:16;;;;;;;;;13.00;9.25;;;;;21.42;46.91;101127.16;5036004;28;45421;-71
2022/11/14 03:26:41;;;;;;;;;11.00;9.00;;;;;21.44;46.50;101132.31;5035412;28;45433;-70
2022/11/14 03:29:07;;;;;;;;;10.25;8.25;;;;;21.43;47.09;101123.53;5036327;28;45324;-70
2022/11/14 03:31:32;;;;;;;;;8.33;8.00;;;;;21.42;46.98;101124.50;5035835;28;46150;-70
2022/11/14 03:33:57;;;;;;;;;8.25;6.00;;;;;21.42;46.62;101129.00;5025278;28;45321;-70
2022/11/14 03:36:23;;;;;;;;;12.75;9.50;;;;;21.36;46.96;101123.38;5031980;28;45445;-70
2022/11/14 03:38:48;;;;;;;;;10.50;8.50;;;;;21.09;46.72;101075.13;5035912;28;45889;-70
2022/11/14 03:41:13;;;;;;;;;10.75;9.75;;;;;21.38;47.18;101118.75;5035486;28;46066;-70
2022/11/14 03:43:39;;;;;;;;;10.00;9.50;;;;;21.42;46.93;101121.06;5035791;28;45490;-70
2022/11/14 03:46:04;;;;;;;;;9.25;7.75;;;;;21.38;46.67;101109.97;5036064;28;45481;-70
2022/11/14 03:48:29;;;;;;;;;7.25;6.50;;;;;21.40;46.23;101108.81;5035319;28;45411;-70
2022/11/14 03:50:55;;;;;;;;;10.25;9.50;;;;;21.38;46.54;101097.56;5035399;28;45208;-70
2022/11/14 03:53:21;;;;;;;;;9.75;8.50;;;;;21.39;46.34;101104.50;5035309;28;45558;-70
2022/11/14 03:55:46;;;;;;;;;8.00;8.00;;;;;21.40;46.40;101098.22;5035563;28;45296;-70
2022/11/14 03:58:12;;;;;;;;;10.00;8.00;;;;;21.39;46.84;101104.50;5040152;28;45478;-70
2022/11/14 04:00:37;;;;;;;;;11.00;10.00;;;;;21.24;46.59;101066.50;5035043;28;46458;-70
2022/11/14 04:03:03;;;;;;;;;10.25;9.00;;;;;21.38;46.32;101097.56;5035113;28;45407;-70
2022/11/14 04:05:28;;;;;;;;;13.50;12.00;;;;;21.38;46.66;101088.81;5035058;28;45413;-70
2022/11/14 04:07:53;;;;;;;;;10.00;8.75;;;;;21.37;46.20;101089.78;5035348;28;45283;-70
2022/11/14 04:10:19;;;;;;;;;10.25;8.75;;;;;21.36;46.57;101088.97;5035262;28;46138;-70
2022/11/14 04:12:49;;;;;;;;;8.00;7.25;;;;;21.26;46.82;101078.56;5017416;28;45323;-70
2022/11/14 04:15:15;;;;;;;;;8.50;8.00;;;;;21.37;46.42;101095.06;5035488;28;45308;-71
2022/11/14 04:17:41;;;;;;;;;14.50;11.75;;;;;21.37;46.59;101093.25;5035052;28;45355;-70
2022/11/14 04:20:06;;;;;;;;;11.00;8.25;;;;;21.39;46.41;101093.09;5035047;28;46121;-70
2022/11/14 04:22:32;;;;;;;;;8.00;7.75;;;;;21.34;46.64;101083.00;5034948;28;45426;-70
2022/11/14 04:24:57;;;;;;;;;10.75;8.00;;;;;21.37;46.60;101085.31;5035431;28;45405;-70
2022/11/14 04:27:22;;;;;;;;;9.00;8.25;;;;;21.37;46.80;101084.50;5035251;28;45232;-70
2022/11/14 04:29:48;;;;;;;;;11.00;9.75;;;;;21.37;46.54;101080.03;5035285;28;45231;-71
2022/11/14 04:32:13;;;;;;;;;9.25;9.25;;;;;21.37;46.21;101079.19;5034475;28;48075;-70
2022/11/14 04:34:38;;;;;;;;;10.50;8.75;;;;;21.36;46.20;101077.56;5031135;28;45342;-71
2022/11/14 04:37:03;;;;;;;;;8.25;6.25;;;;;21.37;46.34;101079.19;5034796;28;45236;-70
2022/11/14 04:39:29;;;;;;;;;7.75;7.75;;;;;21.35;46.25;101068.78;5037639;28;45335;-70
2022/11/14 04:41:54;;;;;;;;;8.00;8.00;;;;;21.29;46.14;101053.56;5038319;28;47609;-69
2022/11/14 04:44:19;;;;;;;;;9.75;7.50;;;;;21.34;46.35;101064.47;5038956;28;45688;-68
2022/11/14 04:46:45;;;;;;;;;8.75;6.50;;;;;21.32;46.14;101055.88;5037832;28;45560;-70
2022/11/14 04:49:10;;;;;;;;;9.00;8.25;;;;;21.34;46.37;101061.84;5017031;28;47288;-70
2022/11/14 04:51:35;;;;;;;;;9.00;8.67;;;;;21.34;46.61;101061.03;5033771;28;45457;-70
2022/11/14 04:54:01;;;;;;;;;9.50;9.00;;;;;21.33;46.53;101044.31;5037985;28;45622;-70
2022/11/14 04:56:26;;;;;;;;;11.00;8.25;;;;;21.31;46.01;101041.03;5038246;28;45444;-70
2022/11/14 04:58:51;;;;;;;;;12.50;10.75;;;;;21.32;46.36;101036.53;5037796;28;45350;-70
2022/11/14 05:01:17;;;;;;;;;10.75;10.00;;;;;21.31;46.08;101038.38;5038025;28;45373;-69
2022/11/14 05:03:42;;;;;;;;;10.75;8.25;;;;;21.29;46.36;101027.13;5038346;28;45781;-71
2022/11/14 05:06:08;;;;;;;;;10.75;8.50;;;;;21.24;46.13;101019.69;5038208;28;45414;-70
2022/11/14 05:08:34;;;;;;;;;11.25;10.00;;;;;21.16;46.46;101003.84;5037733;28;46802;-70
2022/11/14 05:10:59;;;;;;;;;8.00;8.00;;;;;21.29;46.46;101024.47;5037609;28;45393;-70
2022/11/14 05:13:24;;;;;;;;;7.00;7.00;;;;;21.29;46.36;101024.47;5038074;28;45517;-70
2022/11/14 05:15:50;;;;;;;;;11.00;7.75;;;;;21.14;46.80;101009.31;5037801;28;45267;-70
2022/11/14 05:18:15;;;;;;;;;10.75;9.00;;;;;21.27;46.46;101021.16;5037933;28;46071;-70
2022/11/14 05:20:40;;;;;;;;;8.25;8.25;;;;;21.29;46.04;101029.75;5037651;28;45337;-70
2022/11/14 05:23:06;;;;;;;;;11.25;9.00;;;;;21.26;46.39;101017.69;5037448;28;45491;-70
2022/11/14 05:25:31;;;;;;;;;4.50;4.00;;;;;21.25;45.93;101008.13;5037746;28;45184;-70
2022/11/14 05:27:56;;;;;;;;;9.75;9.00;;;;;21.29;46.20;101012.06;5037853;28;46635;-70
2022/11/14 05:30:22;;;;;;;;;11.00;8.00;;;;;21.26;46.44;101008.97;5037637;28;45513;-70
2022/11/14 05:32:47;;;;;;;;;8.75;7.50;;;;;21.30;45.99;101010.25;5036811;28;45572;-71
2022/11/14 05:35:12;;;;;;;;;10.50;9.25;;;;;21.31;45.98;101011.09;5024428;28;45442;-70
2022/11/14 05:37:38;;;;;;;;;8.75;8.25;;;;;21.29;46.00;101004.13;5037502;28;45690;-70
2022/11/14 05:40:04;;;;;;;;;9.25;8.00;;;;;21.31;46.00;101001.31;5037172;28;45557;-68
2022/11/14 05:42:30;;;;;;;;;9.00;9.00;;;;;21.31;45.92;101003.16;5037371;28;45505;-69
2022/11/14 05:44:55;;;;;;;;;8.50;8.00;;;;;21.32;46.14;100999.47;5037081;28;45433;-71
2022/11/14 05:47:21;;;;;;;;;10.25;9.00;;;;;21.04;46.28;100959.25;5037267;28;45972;-69
2022/11/14 05:49:46;;;;;;;;;7.75;7.25;;;;;21.31;46.00;100998.69;5036231;28;45373;-70
2022/11/14 05:52:11;;;;;;;;;10.00;8.50;;;;;21.31;46.00;100989.91;5037534;28;45414;-70
2022/11/14 05:54:37;;;;;;;;;9.67;7.67;;;;;21.30;46.20;100983.78;5047722;28;45275;-70
2022/11/14 05:57:03;;;;;;;;;9.75;6.75;;;;;21.29;46.23;100988.25;5038459;28;46048;-70
2022/11/14 05:59:28;;;;;;;;;8.50;7.25;;;;;21.31;46.25;100981.97;5036672;28;45367;-70
2022/11/14 06:01:54;;;;;;;;;7.00;7.00;;;;;21.29;45.78;100982.13;5037103;28;45343;-71
2022/11/14 06:04:19;;;;;;;;;8.00;7.75;;;;;21.29;46.30;100985.59;5018551;28;45479;-69
2022/11/14 06:06:44;;;;;;;;;9.00;9.00;;;;;21.28;45.90;100985.78;5036494;28;52599;-70
2022/11/14 06:09:10;;;;;;;;;10.25;8.00;;;;;21.27;46.39;100990.25;5033566;28;45404;-71
2022/11/14 06:11:35;;;;;;;;;9.50;8.00;;;;;21.27;46.02;100992.91;5037462;28;45572;-70
2022/11/14 06:14:01;;;;;;;;;7.25;7.00;;;;;21.26;46.01;100983.28;5036610;28;45335;-70
2022/11/14 06:16:26;;;;;;;;;7.50;7.50;;;;;21.27;46.33;100986.78;5036387;28;47117;-70
2022/11/14 06:18:52;;;;;;;;;7.33;7.33;;;;;21.27;45.88;100981.47;5036956;28;45476;-70
2022/11/14 06:21:19;;;;;;;;;11.00;8.50;;;;;21.27;45.80;100982.31;5037330;28;45438;-71
2022/11/14 06:23:45;;;;;;;;;9.25;8.00;;;;;21.14;46.12;100963.50;5036769;28;45488;-69
2022/11/14 06:26:24;;;;;;;;;10.75;8.50;;;;;21.26;46.34;100983.28;5036755;28;46149;-69
2022/11/14 06:28:51;;;;;;;;;8.00;6.75;;;;;21.26;45.96;100987.78;5030516;28;45309;-70
2022/11/14 06:31:17;;;;;;;;;8.67;8.67;;;;;21.26;45.99;100993.88;5032972;28;45363;-75
2022/11/14 06:33:43;;;;;;;;;9.00;7.67;;;;;21.27;46.23;100997.34;5030022;28;45522;-71
2022/11/14 06:36:10;;;;;;;;;10.25;7.25;;;;;21.23;45.98;100998.72;5031385;28;45335;-71
2022/11/14 06:38:37;;;;;;;;;9.25;8.00;;;;;21.23;45.84;100996.88;5030266;28;45543;-71
2022/11/14 06:41:16;;;;;;;;;9.00;7.25;;;;;21.20;45.93;100994.56;5028180;28;45418;-71
2022/11/14 06:43:44;;;;;;;;;9.00;8.00;;;;;21.24;46.18;101003.81;5023987;28;45361;-69
2022/11/14 06:46:12;;;;;;;;;9.00;7.50;;;;;21.24;45.77;101000.34;5028662;28;46596;-69
2022/11/14 06:48:38;;;;;;;;;11.00;8.75;;;;;21.20;45.92;100996.41;5030587;28;45527;-72
2022/11/14 06:51:04;;;;;;;;;8.00;8.00;;;;;21.23;45.79;100999.53;5032538;28;45539;-73
2022/11/14 06:53:31;;;;;;;;;6.75;4.00;;;;;21.23;46.02;101006.66;5033207;28;45608;-72
2022/11/14 06:56:02;;;;;;;;;9.75;7.00;;;;;21.22;46.47;101008.47;5034405;28;46243;-71
2022/11/14 06:58:30;;;;;;;;;9.00;7.00;;;;;21.23;46.02;101019.88;5034352;28;45356;-71
2022/11/14 07:00:55;;;;;;;;;8.33;7.33;;;;;21.21;46.12;101019.22;5032432;28;45302;-69
2022/11/14 07:03:21;;;;;;;;;9.67;8.33;;;;;21.13;46.43;100999.72;5028660;28;45419;-69
2022/11/14 07:05:47;;;;;;;;;8.33;8.33;;;;;21.16;46.23;101002.03;5028740;28;46244;-69
2022/11/14 07:08:13;;;;;;;;;6.67;6.67;;;;;21.25;46.47;101012.59;5028536;28;45520;-69
2022/11/14 07:10:39;;;;;;;;;10.25;7.50;;;;;21.15;46.84;100988.97;5022182;28;45377;-68
2022/11/14 07:13:05;;;;;;;;;8.00;7.75;;;;;21.26;46.48;101007.09;5033103;28;45557;-69
2022/11/14 07:15:30;;;;;;;;;10.50;7.75;;;;;21.27;46.82;101000.00;5029865;28;45396;-69
2022/11/14 07:17:57;;;;;;;;;8.00;8.00;;;;;21.23;47.22;100988.94;5031422;28;45517;-70
2022/11/14 07:20:22;;;;;;;;;7.33;7.00;;;;;21.29;46.60;101005.94;5039590;28;45368;-69
2022/11/14 07:22:48;;;;;;;;;7.50;7.00;;;;;21.16;46.82;100980.84;5035687;28;45426;-69
2022/11/14 07:25:13;;;;;;;;;9.00;8.00;;;;;21.28;46.63;101002.50;5038924;28;46180;-69
2022/11/14 07:27:38;;;;;;;;;8.25;8.00;;;;;21.28;46.57;101005.13;5032724;28;45442;-69
2022/11/14 07:30:05;;;;;;;;;8.00;8.00;;;;;21.29;46.95;101000.66;5037057;28;45394;-69
2022/11/14 07:32:30;;;;;;;;;10.25;8.00;;;;;21.29;46.55;100995.34;5041571;28;45507;-69
2022/11/14 07:34:55;;;;;;;;;8.00;7.67;;;;;21.29;47.15;100998.00;5042057;28;47293;-69
2022/11/14 07:37:21;;;;;;;;;8.33;7.67;;;;;21.28;46.96;100991.09;5044425;28;45421;-69
2022/11/14 07:39:46;;;;;;;;;10.50;9.00;;;;;21.29;46.83;100993.53;5044151;28;45374;-69
2022/11/14 07:42:11;;;;;;;;;7.00;6.00;;;;;21.30;46.55;100991.72;5027096;28;45402;-70
2022/11/14 07:44:37;;;;;;;;;8.50;8.00;;;;;21.29;47.20;100998.00;5015321;28;46168;-71
2022/11/14 07:47:02;;;;;;;;;7.50;7.50;;;;;21.29;46.76;100998.00;5022420;28;50004;-71
2022/11/14 07:49:27;;;;;;;;;7.25;6.50;;;;;21.26;47.06;100999.16;5022306;28;45351;-71
2022/11/14 07:51:53;;;;;;;;;7.00;6.25;;;;;21.23;46.83;100991.59;5017660;28;45418;-71
2022/11/14 07:54:18;;;;;;;;;7.75;7.75;;;;;21.30;47.36;100989.09;5019748;28;46120;-72
2022/11/14 07:56:43;;;;;;;;;7.50;7.50;;;;;21.29;46.91;100992.72;5015544;28;45550;-71
2022/11/14 07:59:09;;;;;;;;;7.00;7.00;;;;;21.29;47.27;100993.53;5015491;28;45415;-71
2022/11/14 08:01:34;;;;;;;;;9.00;6.00;;;;;21.28;47.30;100994.56;5025000;28;45312;-71
2022/11/14 08:03:59;;;;;;;;;10.25;8.50;;;;;21.28;47.12;100999.03;5015524;28;45953;-71
2022/11/14 08:06:25;;;;;;;;;6.50;6.50;;;;;21.28;46.88;100991.09;5016506;28;45300;-71
2022/11/14 08:08:50;;;;;;;;;8.50;7.50;;;;;21.27;46.89;100998.19;5015066;28;45356;-71
2022/11/14 08:11:46;;;;;;;;;8.75;8.75;;;;;21.28;47.05;100993.72;5023989;28;45453;-71
2022/11/14 08:14:01;;;;;;;;;6.00;6.00;;;;;21.27;46.87;100995.53;5013935;28;46036;-71
2022/11/14 08:16:26;;;;;;;;;9.75;8.00;;;;;21.14;47.16;100976.72;5015157;28;45461;-72
2022/11/14 08:18:51;;;;;;;;;8.75;7.75;;;;;21.26;47.09;100988.59;5016273;28;49322;-71
2022/11/14 08:21:17;;;;;;;;;6.75;6.75;;;;;21.26;47.04;100995.72;5015249;28;45363;-71
2022/11/14 08:23:44;;;;;;;;;8.25;6.50;;;;;21.20;46.97;100988.47;5025144;28;45482;-72
2022/11/14 08:26:09;;;;;;;;;11.00;6.50;;;;;21.23;47.15;100994.25;5015098;28;45292;-71
2022/11/14 08:28:35;;;;;;;;;7.25;7.25;;;;;21.24;46.93;100987.94;5020972;28;45372;-71
2022/11/14 08:31:01;;;;;;;;;7.00;6.00;;;;;21.21;47.10;100984.81;5025690;28;45328;-72
2022/11/14 08:33:26;;;;;;;;;7.25;6.25;;;;;21.23;46.99;100990.78;5015021;28;47177;-71
2022/11/14 08:35:52;;;;;;;;;6.00;6.00;;;;;21.23;47.14;100988.13;5027012;28;45317;-72
2022/11/14 08:38:17;;;;;;;;;8.00;5.67;;;;;21.23;47.24;100982.81;5033440;28;48056;-71
2022/11/14 08:40:42;;;;;;;;;8.25;7.25;;;;;21.19;47.24;100977.03;5034961;28;50707;-71
2022/11/14 08:43:10;;;;;;;;;5.50;5.00;;;;;21.19;46.68;100969.09;5034768;28;50209;-71
2022/11/14 08:45:35;;;;;;;;;5.50;5.50;;;;;21.22;46.92;100970.59;5035055;28;45462;-71
2022/11/14 08:48:00;;;;;;;;;4.00;4.00;;;;;21.21;47.07;100980.34;5034714;28;45406;-71
2022/11/14 08:50:25;;;;;;;;;7.50;6.25;;;;;21.16;47.52;100975.56;5034633;28;45550;-70
2022/11/14 08:52:51;;;;;;;;;8.50;8.50;;;;;21.22;46.79;100983.81;5034263;28;46150;-72
2022/11/14 08:55:18;;;;;;;;;7.33;7.33;;;;;21.22;46.91;100976.72;5034550;28;45374;-71
2022/11/14 08:57:43;;;;;;;;;7.00;5.50;;;;;21.23;46.88;100986.31;5042170;28;45415;-71
2022/11/14 09:00:09;;;;;;;;;8.50;8.25;;;;;21.24;47.05;100973.88;5038573;28;45459;-71
2022/11/14 09:02:34;;;;;;;;;7.00;7.00;;;;;21.22;46.74;100974.06;5034772;28;45291;-72
2022/11/14 09:05:00;;;;;;;;;8.67;7.67;;;;;21.25;46.52;100970.25;5034190;28;45327;-72
2022/11/14 09:07:25;;;;;;;;;0.25;0.25;;;;;21.25;46.88;100979.00;5034296;28;45379;-72
2022/11/14 09:09:51;;;;;;;;;8.00;7.00;;;;;21.26;46.55;100970.06;5034171;28;45437;-70
2022/11/14 09:12:16;;;;;;;;;4.00;4.00;;;;;21.26;46.67;100964.78;5033845;28;54631;-71
2022/11/14 09:14:42;;;;;;;;;7.67;7.67;;;;;21.27;46.81;100973.53;5034410;28;45315;-72
2022/11/14 09:17:07;;;;;;;;;8.33;7.00;;;;;21.26;46.59;100969.25;5034688;28;45405;-72
2022/11/14 09:19:33;;;;;;;;;9.00;6.00;;;;;21.24;46.69;100966.78;5034693;28;45316;-71
2022/11/14 09:21:58;;;;;;;;;5.67;5.67;;;;;21.23;46.57;100954.56;5034236;28;46153;-70
2022/11/14 09:24:23;;;;;;;;;10.67;7.33;;;;;21.24;46.77;100950.88;5034371;28;46054;-71
2022/11/14 09:26:51;;;;;;;;;7.67;7.33;;;;;21.13;46.90;100935.41;5019979;28;45508;-70
2022/11/14 09:29:17;;;;;;;;;8.75;7.50;;;;;21.22;46.71;100944.13;5037325;28;45429;-70
2022/11/14 09:31:43;;;;;;;;;8.00;6.00;;;;;21.18;46.85;100927.78;5036922;28;45353;-71
2022/11/14 09:34:08;;;;;;;;;7.33;6.67;;;;;21.23;46.91;100940.50;5025299;28;45556;-72
2022/11/14 09:36:34;;;;;;;;;7.00;5.33;;;;;21.23;46.55;100949.25;5035004;28;45388;-72
2022/11/14 09:38:59;;;;;;;;;6.33;6.00;;;;;21.23;46.86;100949.25;5019857;28;45510;-72
2022/11/14 09:41:36;;;;;;;;;8.00;8.00;;;;;21.23;46.93;100949.25;5037107;28;45351;-72
2022/11/14 09:44:20;;;;;;;;;7.75;6.25;;;;;21.23;46.66;100949.25;5019452;28;45371;-72
2022/11/14 09:46:55;;;;;;;;;6.75;6.25;;;;;21.22;46.97;100952.88;5037527;28;45410;-72
2022/11/14 09:49:23;;;;;;;;;7.50;7.00;;;;;21.21;46.87;100956.53;5037598;28;45534;-71
2022/11/14 09:51:57;;;;;;;;;7.00;6.67;;;;;21.17;46.89;100937.53;5036787;28;45270;-72
2022/11/14 09:54:25;;;;;;;;;8.00;6.33;;;;;21.22;47.18;100957.34;5021527;28;45984;-73
2022/11/14 09:56:52;;;;;;;;;6.33;6.00;;;;;21.22;47.29;100952.06;5040089;28;45472;-71
2022/11/14 09:59:18;;;;;;;;;7.00;6.00;;;;;21.22;46.97;100957.34;5037087;28;45459;-71
2022/11/14 10:02:13;;;;;;;;;7.67;5.67;;;;;21.23;46.75;100951.06;5037099;28;46187;-71
2022/11/14 10:05:09;;;;;;;;;11.33;6.00;;;;;21.21;46.95;100955.72;5036543;28;45366;-71
2022/11/14 10:08:04;;;;;;;;;7.00;7.00;;;;;21.22;46.37;100975.88;5037390;28;45327;-72
2022/11/14 10:10:32;;;;;;;;;9.00;6.00;;;;;21.20;46.80;100960.19;5046026;28;45477;-72
2022/11/14 10:13:16;;;;;;;;;8.00;7.00;;;;;21.20;47.00;100965.47;5015888;28;47438;-72
2022/11/14 10:15:45;;;;;;;;;7.75;7.00;;;;;21.19;46.76;100966.47;5035061;28;45357;-71
2022/11/14 10:18:42;;;;;;;;;5.33;4.33;;;;;21.20;46.44;100962.00;5036910;28;46247;-71
2022/11/14 10:21:26;;;;;;;;;8.33;7.33;;;;;21.20;47.02;100943.47;5023651;28;45327;-71
2022/11/14 10:24:19;;;;;;;;;5.00;5.00;;;;;21.20;47.16;100948.78;5035871;28;45418;-71
2022/11/14 10:26:53;;;;;;;;;7.00;6.67;;;;;21.19;46.80;100945.28;5036108;28;45327;-71
2022/11/14 10:29:27;;;;;;;;;7.75;6.00;;;;;21.18;47.18;100957.69;5039655;28;45390;-70
2022/11/14 10:32:07;;;;;;;;;7.75;7.75;;;;;21.20;46.93;100938.19;5036856;28;45428;-70
2022/11/14 10:34:46;;;;;;;;;7.00;7.00;;;;;21.18;47.06;100956.88;5022146;28;45470;-72
2022/11/14 10:37:33;;;;;;;;;7.50;6.25;;;;;21.18;47.00;100939.16;5036159;28;45434;-72
2022/11/14 10:40:28;;;;;;;;;7.00;7.00;;;;;21.19;46.62;100940.00;5036474;28;45227;-72
2022/11/14 10:43:10;;;;;;;;;6.00;5.67;;;;;21.20;46.83;100930.25;5027378;28;45501;-72
2022/11/14 10:45:45;;;;;;;;;7.75;7.75;;;;;21.17;47.14;100913.72;5036517;28;46195;-71
2022/11/14 10:48:24;;;;;;;;;7.75;6.25;;;;;21.22;46.75;100934.38;5034871;28;45517;-71
2022/11/14 10:50:58;;;;;;;;;7.00;6.25;;;;;21.22;46.61;100923.78;5036225;28;45295;-72
2022/11/14 10:53:47;;;;;;;;;8.00;8.00;;;;;21.22;46.63;100915.84;5031568;28;45328;-71
2022/11/14 10:56:13;;;;;;;;;8.00;7.00;;;;;21.22;46.37;100939.66;5035898;28;45606;-71
2022/11/14 10:58:39;;;;;;;;;8.33;7.00;;;;;21.23;46.62;100938.69;5036022;28;45441;-71
2022/11/14 11:01:43;;;;;;;;;8.75;8.75;;;;;21.23;46.76;100929.91;5036477;28;45514;-72
2022/11/14 11:04:26;;;;;;;;;8.25;7.00;;;;;21.25;46.35;100935.84;5036289;28;45457;-71
2022/11/14 11:06:55;;;;;;;;;6.75;6.00;;;;;21.09;46.60;100900.53;5035689;28;47640;-71
2022/11/14 11:12:14;;;;;;;;;6.00;6.00;;;;;21.22;46.71;100938.84;5036252;28;45443;-72
2022/11/14 11:14:40;;;;;;;;;9.00;7.67;;;;;21.21;46.68;100935.34;5036112;28;45502;-71
2022/11/14 11:17:11;;;;;;;;;6.50;6.50;;;;;21.21;46.72;100931.91;5035730;28;45366;-72
2022/11/14 11:19:37;;;;;;;;;8.33;8.00;;;;;21.16;47.05;100919.16;5036139;28;45377;-71
2022/11/14 11:22:04;;;;;;;;;9.67;7.33;;;;;21.21;46.77;100916.03;5018330;28;45597;-71
2022/11/14 11:24:34;;;;;;;;;6.00;4.33;;;;;21.21;46.83;100910.75;5036201;28;45428;-71
2022/11/14 11:27:19;;;;;;;;;7.25;6.00;;;;;21.21;46.61;100898.31;5035895;28;47235;-72